sensor_id;sensor_type;location;lat;lon;timestamp;temperature;humidity
21216;DHT22;10765;50.954;5.322;2022-12-07T00:01:24;4.80;1.00
21216;DHT22;10765;50.954;5.322;2022-12-07T00:03:53;4.80;1.00
21216;DHT22;10765;50.954;5.322;2022-12-07T00:06:22;4.70;1.00
21216;DHT22;10765;50.954;5.322;2022-12-07T00:08:49;4.70;1.00
21216;DHT22;10765;50.954;5.322;2022-12-07T00:11:17;4.80;1.00
21216;DHT22;10765;50.954;5.322;2022-12-07T00:13:45;4.80;1.00
21216;DHT22;10765;50.954;5.322;2022-12-07T00:16:14;4.70;1.00
21216;DHT22;10765;50.954;5.322;2022-12-07T00:18:41;4.80;1.00
21216;DHT22;10765;50.954;5.322;2022-12-07T00:21:13;4.90;1.00
21216;DHT22;10765;50.954;5.322;2022-12-07T00:23:41;4.70;1.00
21216;DHT22;10765;50.954;5.322;2022-12-07T00:26:10;4.60;1.00
21216;DHT22;10765;50.954;5.322;2022-12-07T00:28:38;4.50;1.00
21216;DHT22;10765;50.954;5.322;2022-12-07T00:31:07;4.40;1.00
21216;DHT22;10765;50.954;5.322;2022-12-07T00:33:35;4.30;1.00
21216;DHT22;10765;50.954;5.322;2022-12-07T00:36:03;4.30;1.00
21216;DHT22;10765;50.954;5.322;2022-12-07T00:38:34;4.40;99.90
21216;DHT22;10765;50.954;5.322;2022-12-07T00:41:03;4.50;99.90
21216;DHT22;10765;50.954;5.322;2022-12-07T00:43:30;4.60;99.90
21216;DHT22;10765;50.954;5.322;2022-12-07T00:45:58;4.60;1.00
21216;DHT22;10765;50.954;5.322;2022-12-07T00:48:25;4.80;29.60
21216;DHT22;10765;50.954;5.322;2022-12-07T00:50:52;4.80;1.00
21216;DHT22;10765;50.954;5.322;2022-12-07T00:53:19;4.70;1.00
21216;DHT22;10765;50.954;5.322;2022-12-07T00:55:47;4.70;1.00
21216;DHT22;10765;50.954;5.322;2022-12-07T00:58:14;4.70;1.00
21216;DHT22;10765;50.954;5.322;2022-12-07T01:00:42;4.80;1.00
21216;DHT22;10765;50.954;5.322;2022-12-07T01:03:11;4.70;1.00
21216;DHT22;10765;50.954;5.322;2022-12-07T01:05:38;4.70;1.00
21216;DHT22;10765;50.954;5.322;2022-12-07T01:08:06;4.70;1.00
21216;DHT22;10765;50.954;5.322;2022-12-07T01:10:33;4.70;1.00
21216;DHT22;10765;50.954;5.322;2022-12-07T01:13:01;4.70;7.40
21216;DHT22;10765;50.954;5.322;2022-12-07T01:15:28;4.70;1.00
21216;DHT22;10765;50.954;5.322;2022-12-07T01:17:55;4.80;10.00
21216;DHT22;10765;50.954;5.322;2022-12-07T01:20:22;4.80;25.60
21216;DHT22;10765;50.954;5.322;2022-12-07T01:22:49;4.80;99.90
21216;DHT22;10765;50.954;5.322;2022-12-07T01:25:16;4.80;99.90
21216;DHT22;10765;50.954;5.322;2022-12-07T01:27:43;4.80;99.90
21216;DHT22;10765;50.954;5.322;2022-12-07T01:30:12;4.70;99.90
21216;DHT22;10765;50.954;5.322;2022-12-07T01:32:39;4.70;99.90
21216;DHT22;10765;50.954;5.322;2022-12-07T01:35:07;4.70;99.90
21216;DHT22;10765;50.954;5.322;2022-12-07T01:37:35;4.70;99.90
21216;DHT22;10765;50.954;5.322;2022-12-07T01:40:03;4.60;99.90
21216;DHT22;10765;50.954;5.322;2022-12-07T01:42:30;4.60;99.90
21216;DHT22;10765;50.954;5.322;2022-12-07T01:45:36;4.70;99.90
21216;DHT22;10765;50.954;5.322;2022-12-07T01:48:04;4.70;99.90
21216;DHT22;10765;50.954;5.322;2022-12-07T01:50:32;4.70;99.90
21216;DHT22;10765;50.954;5.322;2022-12-07T01:53:02;4.70;99.90
21216;DHT22;10765;50.954;5.322;2022-12-07T01:55:30;4.60;99.90
21216;DHT22;10765;50.954;5.322;2022-12-07T01:57:57;4.50;99.90
21216;DHT22;10765;50.954;5.322;2022-12-07T02:00:24;4.50;99.90
21216;DHT22;10765;50.954;5.322;2022-12-07T02:02:55;4.50;99.90
21216;DHT22;10765;50.954;5.322;2022-12-07T02:05:24;4.50;99.90
21216;DHT22;10765;50.954;5.322;2022-12-07T02:07:55;4.50;99.90
21216;DHT22;10765;50.954;5.322;2022-12-07T02:10:24;4.50;99.90
21216;DHT22;10765;50.954;5.322;2022-12-07T02:12:54;4.50;99.90
21216;DHT22;10765;50.954;5.322;2022-12-07T02:15:25;4.40;99.90
21216;DHT22;10765;50.954;5.322;2022-12-07T02:18:01;4.30;99.90
21216;DHT22;10765;50.954;5.322;2022-12-07T02:20:38;4.40;99.90
21216;DHT22;10765;50.954;5.322;2022-12-07T02:26:37;4.50;99.90
21216;DHT22;10765;50.954;5.322;2022-12-07T02:29:15;4.60;99.90
21216;DHT22;10765;50.954;5.322;2022-12-07T02:31:49;4.70;99.90
21216;DHT22;10765;50.954;5.322;2022-12-07T02:34:25;4.70;99.90
21216;DHT22;10765;50.954;5.322;2022-12-07T02:36:57;4.70;99.90
21216;DHT22;10765;50.954;5.322;2022-12-07T02:39:33;4.80;99.90
21216;DHT22;10765;50.954;5.322;2022-12-07T02:42:07;4.80;99.90
21216;DHT22;10765;50.954;5.322;2022-12-07T02:44:37;4.80;99.90
21216;DHT22;10765;50.954;5.322;2022-12-07T02:47:07;4.90;99.90
21216;DHT22;10765;50.954;5.322;2022-12-07T02:49:38;4.90;99.90
21216;DHT22;10765;50.954;5.322;2022-12-07T02:52:06;4.80;99.90
21216;DHT22;10765;50.954;5.322;2022-12-07T02:54:33;4.80;99.90
21216;DHT22;10765;50.954;5.322;2022-12-07T02:57:09;4.80;99.90
21216;DHT22;10765;50.954;5.322;2022-12-07T02:59:48;4.80;99.90
21216;DHT22;10765;50.954;5.322;2022-12-07T03:02:24;4.70;99.90
21216;DHT22;10765;50.954;5.322;2022-12-07T03:05:00;4.70;99.90
21216;DHT22;10765;50.954;5.322;2022-12-07T03:07:37;4.60;99.90
21216;DHT22;10765;50.954;5.322;2022-12-07T03:10:09;4.70;99.90
21216;DHT22;10765;50.954;5.322;2022-12-07T03:12:45;4.80;99.90
21216;DHT22;10765;50.954;5.322;2022-12-07T03:15:18;4.70;99.90
21216;DHT22;10765;50.954;5.322;2022-12-07T03:17:48;4.60;99.90
21216;DHT22;10765;50.954;5.322;2022-12-07T03:20:18;4.50;99.90
21216;DHT22;10765;50.954;5.322;2022-12-07T03:22:47;4.50;99.90
21216;DHT22;10765;50.954;5.322;2022-12-07T03:25:15;4.40;99.90
21216;DHT22;10765;50.954;5.322;2022-12-07T03:27:45;4.40;99.90
21216;DHT22;10765;50.954;5.322;2022-12-07T03:30:18;4.40;99.90
21216;DHT22;10765;50.954;5.322;2022-12-07T03:32:50;4.40;99.90
21216;DHT22;10765;50.954;5.322;2022-12-07T03:35:22;4.40;99.90
21216;DHT22;10765;50.954;5.322;2022-12-07T03:37:54;4.50;99.90
21216;DHT22;10765;50.954;5.322;2022-12-07T03:40:26;4.60;99.90
21216;DHT22;10765;50.954;5.322;2022-12-07T03:42:55;4.70;99.90
21216;DHT22;10765;50.954;5.322;2022-12-07T03:45:31;4.70;99.90
21216;DHT22;10765;50.954;5.322;2022-12-07T03:48:05;4.70;99.90
21216;DHT22;10765;50.954;5.322;2022-12-07T03:50:40;4.70;99.90
21216;DHT22;10765;50.954;5.322;2022-12-07T03:53:14;4.70;99.90
21216;DHT22;10765;50.954;5.322;2022-12-07T03:55:44;4.70;99.90
21216;DHT22;10765;50.954;5.322;2022-12-07T03:58:16;4.70;99.90
21216;DHT22;10765;50.954;5.322;2022-12-07T04:00:45;4.70;99.90
21216;DHT22;10765;50.954;5.322;2022-12-07T04:03:12;4.80;99.90
21216;DHT22;10765;50.954;5.322;2022-12-07T04:05:39;4.70;99.90
21216;DHT22;10765;50.954;5.322;2022-12-07T04:08:07;4.70;99.90
21216;DHT22;10765;50.954;5.322;2022-12-07T04:10:34;4.50;99.90
21216;DHT22;10765;50.954;5.322;2022-12-07T04:13:01;4.30;99.90
21216;DHT22;10765;50.954;5.322;2022-12-07T04:15:28;4.20;99.90
21216;DHT22;10765;50.954;5.322;2022-12-07T04:17:56;4.10;99.90
21216;DHT22;10765;50.954;5.322;2022-12-07T04:20:23;4.10;99.90
21216;DHT22;10765;50.954;5.322;2022-12-07T04:22:50;4.00;99.90
21216;DHT22;10765;50.954;5.322;2022-12-07T04:25:17;4.00;99.90
21216;DHT22;10765;50.954;5.322;2022-12-07T04:27:44;4.00;99.90
21216;DHT22;10765;50.954;5.322;2022-12-07T04:30:11;3.90;99.90
21216;DHT22;10765;50.954;5.322;2022-12-07T04:32:38;3.90;99.90
21216;DHT22;10765;50.954;5.322;2022-12-07T04:35:07;3.90;99.90
21216;DHT22;10765;50.954;5.322;2022-12-07T04:37:34;3.90;99.90
21216;DHT22;10765;50.954;5.322;2022-12-07T04:40:01;3.90;99.90
21216;DHT22;10765;50.954;5.322;2022-12-07T04:42:29;3.90;99.90
21216;DHT22;10765;50.954;5.322;2022-12-07T04:44:55;3.90;99.90
21216;DHT22;10765;50.954;5.322;2022-12-07T04:47:22;4.00;99.90
21216;DHT22;10765;50.954;5.322;2022-12-07T04:49:49;4.20;99.90
21216;DHT22;10765;50.954;5.322;2022-12-07T04:52:17;4.40;99.90
21216;DHT22;10765;50.954;5.322;2022-12-07T04:54:44;4.50;99.90
21216;DHT22;10765;50.954;5.322;2022-12-07T04:57:11;4.30;99.90
21216;DHT22;10765;50.954;5.322;2022-12-07T04:59:38;4.20;99.90
21216;DHT22;10765;50.954;5.322;2022-12-07T05:02:05;4.00;99.90
21216;DHT22;10765;50.954;5.322;2022-12-07T05:04:32;4.00;99.90
21216;DHT22;10765;50.954;5.322;2022-12-07T05:06:59;3.90;99.90
21216;DHT22;10765;50.954;5.322;2022-12-07T05:09:27;3.90;99.90
21216;DHT22;10765;50.954;5.322;2022-12-07T05:11:54;3.80;99.90
21216;DHT22;10765;50.954;5.322;2022-12-07T05:14:21;3.80;99.90
21216;DHT22;10765;50.954;5.322;2022-12-07T05:16:49;3.80;99.90
21216;DHT22;10765;50.954;5.322;2022-12-07T05:19:17;3.70;99.90
21216;DHT22;10765;50.954;5.322;2022-12-07T05:21:45;3.60;99.90
21216;DHT22;10765;50.954;5.322;2022-12-07T05:24:13;3.50;99.90
21216;DHT22;10765;50.954;5.322;2022-12-07T05:26:42;3.50;99.90
21216;DHT22;10765;50.954;5.322;2022-12-07T05:29:12;3.60;99.90
21216;DHT22;10765;50.954;5.322;2022-12-07T05:31:39;3.70;99.90
21216;DHT22;10765;50.954;5.322;2022-12-07T05:34:06;3.80;99.90
21216;DHT22;10765;50.954;5.322;2022-12-07T05:36:33;3.70;99.90
21216;DHT22;10765;50.954;5.322;2022-12-07T05:39:00;3.80;99.90
21216;DHT22;10765;50.954;5.322;2022-12-07T05:41:27;3.90;99.90
21216;DHT22;10765;50.954;5.322;2022-12-07T05:44:12;3.90;99.90
21216;DHT22;10765;50.954;5.322;2022-12-07T05:46:39;4.00;99.90
21216;DHT22;10765;50.954;5.322;2022-12-07T05:49:06;4.00;99.90
21216;DHT22;10765;50.954;5.322;2022-12-07T05:51:33;4.10;99.90
21216;DHT22;10765;50.954;5.322;2022-12-07T05:54:00;4.10;99.90
21216;DHT22;10765;50.954;5.322;2022-12-07T05:56:27;4.10;99.90
21216;DHT22;10765;50.954;5.322;2022-12-07T05:58:54;4.10;99.90
21216;DHT22;10765;50.954;5.322;2022-12-07T06:01:39;4.10;99.90
21216;DHT22;10765;50.954;5.322;2022-12-07T06:04:07;4.10;99.90
21216;DHT22;10765;50.954;5.322;2022-12-07T06:06:34;4.00;99.90
21216;DHT22;10765;50.954;5.322;2022-12-07T06:09:01;4.00;99.90
21216;DHT22;10765;50.954;5.322;2022-12-07T06:11:28;4.10;99.90
21216;DHT22;10765;50.954;5.322;2022-12-07T06:14:13;4.20;99.90
21216;DHT22;10765;50.954;5.322;2022-12-07T06:16:41;4.30;99.90
21216;DHT22;10765;50.954;5.322;2022-12-07T06:19:09;4.40;99.90
21216;DHT22;10765;50.954;5.322;2022-12-07T06:21:36;4.50;99.90
21216;DHT22;10765;50.954;5.322;2022-12-07T06:24:03;4.40;99.90
21216;DHT22;10765;50.954;5.322;2022-12-07T06:26:30;4.40;99.90
21216;DHT22;10765;50.954;5.322;2022-12-07T06:28:57;4.40;99.90
21216;DHT22;10765;50.954;5.322;2022-12-07T06:31:24;4.40;99.90
21216;DHT22;10765;50.954;5.322;2022-12-07T06:33:57;4.50;99.90
21216;DHT22;10765;50.954;5.322;2022-12-07T06:36:24;4.50;99.90
21216;DHT22;10765;50.954;5.322;2022-12-07T06:38:51;4.50;99.90
21216;DHT22;10765;50.954;5.322;2022-12-07T06:41:18;4.60;99.90
21216;DHT22;10765;50.954;5.322;2022-12-07T06:43:45;4.70;99.90
21216;DHT22;10765;50.954;5.322;2022-12-07T06:46:12;4.60;99.90
21216;DHT22;10765;50.954;5.322;2022-12-07T06:48:39;4.50;99.90
21216;DHT22;10765;50.954;5.322;2022-12-07T06:51:08;4.60;99.90
21216;DHT22;10765;50.954;5.322;2022-12-07T06:53:35;4.60;99.90
21216;DHT22;10765;50.954;5.322;2022-12-07T06:56:03;4.50;99.90
21216;DHT22;10765;50.954;5.322;2022-12-07T06:58:30;4.40;99.90
21216;DHT22;10765;50.954;5.322;2022-12-07T07:00:57;4.40;99.90
21216;DHT22;10765;50.954;5.322;2022-12-07T07:03:24;4.40;99.90
21216;DHT22;10765;50.954;5.322;2022-12-07T07:05:51;4.40;99.90
21216;DHT22;10765;50.954;5.322;2022-12-07T07:08:19;4.40;99.90
21216;DHT22;10765;50.954;5.322;2022-12-07T07:10:46;4.30;99.90
21216;DHT22;10765;50.954;5.322;2022-12-07T07:13:13;4.10;99.90
21216;DHT22;10765;50.954;5.322;2022-12-07T07:15:39;4.00;99.90
21216;DHT22;10765;50.954;5.322;2022-12-07T07:18:06;4.00;99.90
21216;DHT22;10765;50.954;5.322;2022-12-07T07:20:33;3.90;99.90
21216;DHT22;10765;50.954;5.322;2022-12-07T07:23:00;3.80;99.90
21216;DHT22;10765;50.954;5.322;2022-12-07T07:25:28;3.70;99.90
21216;DHT22;10765;50.954;5.322;2022-12-07T07:27:55;3.60;99.90
21216;DHT22;10765;50.954;5.322;2022-12-07T07:30:22;3.60;99.90
21216;DHT22;10765;50.954;5.322;2022-12-07T07:32:49;3.60;99.90
21216;DHT22;10765;50.954;5.322;2022-12-07T07:35:16;3.60;99.90
21216;DHT22;10765;50.954;5.322;2022-12-07T07:37:43;3.50;99.90
21216;DHT22;10765;50.954;5.322;2022-12-07T07:40:11;3.50;99.90
21216;DHT22;10765;50.954;5.322;2022-12-07T07:42:39;3.40;99.90
21216;DHT22;10765;50.954;5.322;2022-12-07T07:45:07;3.30;99.90
21216;DHT22;10765;50.954;5.322;2022-12-07T07:47:34;3.30;99.90
21216;DHT22;10765;50.954;5.322;2022-12-07T07:50:01;3.20;99.90
21216;DHT22;10765;50.954;5.322;2022-12-07T07:52:28;3.20;99.90
21216;DHT22;10765;50.954;5.322;2022-12-07T07:54:54;3.20;99.90
21216;DHT22;10765;50.954;5.322;2022-12-07T07:57:21;3.20;99.90
21216;DHT22;10765;50.954;5.322;2022-12-07T07:59:50;3.20;99.90
21216;DHT22;10765;50.954;5.322;2022-12-07T08:02:19;3.20;99.90
21216;DHT22;10765;50.954;5.322;2022-12-07T08:04:46;3.20;99.90
21216;DHT22;10765;50.954;5.322;2022-12-07T08:07:14;3.20;99.90
21216;DHT22;10765;50.954;5.322;2022-12-07T08:09:41;3.30;99.90
21216;DHT22;10765;50.954;5.322;2022-12-07T08:12:09;3.40;99.90
21216;DHT22;10765;50.954;5.322;2022-12-07T08:14:36;3.80;99.90
21216;DHT22;10765;50.954;5.322;2022-12-07T08:17:04;4.30;99.90
21216;DHT22;10765;50.954;5.322;2022-12-07T08:19:31;5.10;99.90
21216;DHT22;10765;50.954;5.322;2022-12-07T08:21:58;5.90;99.90
21216;DHT22;10765;50.954;5.322;2022-12-07T08:24:25;6.50;99.90
21216;DHT22;10765;50.954;5.322;2022-12-07T08:26:52;7.10;99.90
21216;DHT22;10765;50.954;5.322;2022-12-07T08:29:19;7.10;99.90
21216;DHT22;10765;50.954;5.322;2022-12-07T08:31:46;6.90;99.90
21216;DHT22;10765;50.954;5.322;2022-12-07T08:34:14;6.90;99.90
21216;DHT22;10765;50.954;5.322;2022-12-07T08:36:41;7.70;99.90
21216;DHT22;10765;50.954;5.322;2022-12-07T08:39:08;8.50;99.90
21216;DHT22;10765;50.954;5.322;2022-12-07T08:41:35;8.70;1.00
21216;DHT22;10765;50.954;5.322;2022-12-07T08:44:02;8.30;99.90
21216;DHT22;10765;50.954;5.322;2022-12-07T08:46:32;8.70;1.00
21216;DHT22;10765;50.954;5.322;2022-12-07T08:49:06;9.90;1.00
21216;DHT22;10765;50.954;5.322;2022-12-07T08:51:36;10.80;22.30
21216;DHT22;10765;50.954;5.322;2022-12-07T08:54:06;10.10;1.00
21216;DHT22;10765;50.954;5.322;2022-12-07T08:56:34;9.70;1.00
21216;DHT22;10765;50.954;5.322;2022-12-07T08:59:01;9.40;1.00
21216;DHT22;10765;50.954;5.322;2022-12-07T09:01:28;8.80;1.00
21216;DHT22;10765;50.954;5.322;2022-12-07T09:03:56;8.40;99.90
21216;DHT22;10765;50.954;5.322;2022-12-07T09:06:23;8.30;99.90
21216;DHT22;10765;50.954;5.322;2022-12-07T09:08:53;8.40;99.90
21216;DHT22;10765;50.954;5.322;2022-12-07T09:11:22;9.50;99.90
21216;DHT22;10765;50.954;5.322;2022-12-07T09:13:49;10.50;1.00
21216;DHT22;10765;50.954;5.322;2022-12-07T09:16:16;9.40;1.00
21216;DHT22;10765;50.954;5.322;2022-12-07T09:18:43;8.40;1.00
21216;DHT22;10765;50.954;5.322;2022-12-07T09:21:09;8.10;99.90
21216;DHT22;10765;50.954;5.322;2022-12-07T09:23:36;8.10;99.90
21216;DHT22;10765;50.954;5.322;2022-12-07T09:26:05;9.10;99.90
21216;DHT22;10765;50.954;5.322;2022-12-07T09:28:32;9.10;3.50
21216;DHT22;10765;50.954;5.322;2022-12-07T09:30:59;8.30;99.90
21216;DHT22;10765;50.954;5.322;2022-12-07T09:33:26;7.70;99.90
21216;DHT22;10765;50.954;5.322;2022-12-07T09:35:52;7.60;1.00
21216;DHT22;10765;50.954;5.322;2022-12-07T09:38:20;7.10;1.00
21216;DHT22;10765;50.954;5.322;2022-12-07T09:40:48;6.90;99.90
21216;DHT22;10765;50.954;5.322;2022-12-07T09:43:19;6.80;99.90
21216;DHT22;10765;50.954;5.322;2022-12-07T09:45:49;7.00;1.00
21216;DHT22;10765;50.954;5.322;2022-12-07T09:48:18;7.20;1.00
21216;DHT22;10765;50.954;5.322;2022-12-07T09:50:47;7.40;99.90
21216;DHT22;10765;50.954;5.322;2022-12-07T09:53:19;7.70;1.00
21216;DHT22;10765;50.954;5.322;2022-12-07T09:55:47;8.00;1.00
21216;DHT22;10765;50.954;5.322;2022-12-07T09:58:20;8.00;99.90
21216;DHT22;10765;50.954;5.322;2022-12-07T10:00:48;7.90;1.00
21216;DHT22;10765;50.954;5.322;2022-12-07T10:03:15;7.70;1.00
21216;DHT22;10765;50.954;5.322;2022-12-07T10:05:45;7.80;1.00
21216;DHT22;10765;50.954;5.322;2022-12-07T10:08:14;8.60;99.90
21216;DHT22;10765;50.954;5.322;2022-12-07T10:10:43;9.30;99.90
21216;DHT22;10765;50.954;5.322;2022-12-07T10:13:11;9.70;56.40
21216;DHT22;10765;50.954;5.322;2022-12-07T10:15:46;9.30;1.00
21216;DHT22;10765;50.954;5.322;2022-12-07T10:18:28;10.50;26.20
21216;DHT22;10765;50.954;5.322;2022-12-07T10:21:09;11.60;1.00
21216;DHT22;10765;50.954;5.322;2022-12-07T10:23:38;10.60;1.00
21216;DHT22;10765;50.954;5.322;2022-12-07T10:26:27;9.50;1.00
21216;DHT22;10765;50.954;5.322;2022-12-07T10:28:55;9.30;1.00
21216;DHT22;10765;50.954;5.322;2022-12-07T10:31:23;8.60;99.90
21216;DHT22;10765;50.954;5.322;2022-12-07T10:33:53;8.40;99.90
21216;DHT22;10765;50.954;5.322;2022-12-07T10:36:23;8.00;99.90
21216;DHT22;10765;50.954;5.322;2022-12-07T10:38:52;7.50;1.00
21216;DHT22;10765;50.954;5.322;2022-12-07T10:41:19;7.40;99.90
21216;DHT22;10765;50.954;5.322;2022-12-07T10:43:48;7.50;99.90
21216;DHT22;10765;50.954;5.322;2022-12-07T10:46:55;7.70;1.00
21216;DHT22;10765;50.954;5.322;2022-12-07T10:52:35;7.50;99.90
21216;DHT22;10765;50.954;5.322;2022-12-07T10:55:16;7.40;99.90
21216;DHT22;10765;50.954;5.322;2022-12-07T11:00:39;7.10;1.00
21216;DHT22;10765;50.954;5.322;2022-12-07T11:03:27;7.10;99.90
21216;DHT22;10765;50.954;5.322;2022-12-07T11:06:04;7.40;99.90
21216;DHT22;10765;50.954;5.322;2022-12-07T11:08:50;8.00;1.00
21216;DHT22;10765;50.954;5.322;2022-12-07T11:11:23;9.20;1.00
21216;DHT22;10765;50.954;5.322;2022-12-07T11:13:56;8.90;99.90
21216;DHT22;10765;50.954;5.322;2022-12-07T11:16:48;8.40;99.90
21216;DHT22;10765;50.954;5.322;2022-12-07T11:19:28;8.20;99.90
21216;DHT22;10765;50.954;5.322;2022-12-07T11:21:58;8.00;1.00
21216;DHT22;10765;50.954;5.322;2022-12-07T11:24:30;7.80;1.00
21216;DHT22;10765;50.954;5.322;2022-12-07T11:27:13;7.70;45.90
21216;DHT22;10765;50.954;5.322;2022-12-07T11:29:56;8.10;16.30
21216;DHT22;10765;50.954;5.322;2022-12-07T11:32:45;8.10;1.00
21216;DHT22;10765;50.954;5.322;2022-12-07T11:35:23;8.40;1.00
21216;DHT22;10765;50.954;5.322;2022-12-07T11:37:56;8.60;99.90
21216;DHT22;10765;50.954;5.322;2022-12-07T11:40:26;8.50;99.90
21216;DHT22;10765;50.954;5.322;2022-12-07T11:42:59;8.20;99.90
21216;DHT22;10765;50.954;5.322;2022-12-07T11:45:29;8.00;99.90
21216;DHT22;10765;50.954;5.322;2022-12-07T11:48:00;8.20;1.00
21216;DHT22;10765;50.954;5.322;2022-12-07T11:50:33;8.20;99.90
21216;DHT22;10765;50.954;5.322;2022-12-07T11:53:03;8.00;1.00
21216;DHT22;10765;50.954;5.322;2022-12-07T11:55:41;8.00;1.00
21216;DHT22;10765;50.954;5.322;2022-12-07T11:58:25;8.00;1.00
21216;DHT22;10765;50.954;5.322;2022-12-07T12:01:11;7.70;1.00
21216;DHT22;10765;50.954;5.322;2022-12-07T12:03:44;7.80;1.00
21216;DHT22;10765;50.954;5.322;2022-12-07T12:06:14;7.70;1.00
21216;DHT22;10765;50.954;5.322;2022-12-07T12:08:45;7.70;1.00
21216;DHT22;10765;50.954;5.322;2022-12-07T12:11:25;7.60;1.00
21216;DHT22;10765;50.954;5.322;2022-12-07T12:14:13;7.70;1.00
21216;DHT22;10765;50.954;5.322;2022-12-07T12:17:11;7.70;1.00
21216;DHT22;10765;50.954;5.322;2022-12-07T12:19:42;7.80;1.00
21216;DHT22;10765;50.954;5.322;2022-12-07T12:22:16;7.90;1.00
21216;DHT22;10765;50.954;5.322;2022-12-07T12:24:46;8.00;1.00
21216;DHT22;10765;50.954;5.322;2022-12-07T12:27:26;7.80;1.00
21216;DHT22;10765;50.954;5.322;2022-12-07T12:29:55;8.00;1.00
21216;DHT22;10765;50.954;5.322;2022-12-07T12:32:29;8.20;1.00
21216;DHT22;10765;50.954;5.322;2022-12-07T12:35:22;8.10;1.00
21216;DHT22;10765;50.954;5.322;2022-12-07T12:37:52;7.70;1.00
21216;DHT22;10765;50.954;5.322;2022-12-07T12:40:43;7.80;1.00
21216;DHT22;10765;50.954;5.322;2022-12-07T12:43:48;7.70;1.00
21216;DHT22;10765;50.954;5.322;2022-12-07T12:46:49;7.60;1.00
21216;DHT22;10765;50.954;5.322;2022-12-07T12:49:34;7.60;1.00
21216;DHT22;10765;50.954;5.322;2022-12-07T12:55:17;8.20;99.90
21216;DHT22;10765;50.954;5.322;2022-12-07T12:57:47;8.10;99.90
21216;DHT22;10765;50.954;5.322;2022-12-07T13:00:18;7.90;99.90
21216;DHT22;10765;50.954;5.322;2022-12-07T13:02:49;8.10;99.90
21216;DHT22;10765;50.954;5.322;2022-12-07T13:05:18;8.10;99.90
21216;DHT22;10765;50.954;5.322;2022-12-07T13:08:00;8.00;99.90
21216;DHT22;10765;50.954;5.322;2022-12-07T13:10:47;8.00;99.90
21216;DHT22;10765;50.954;5.322;2022-12-07T13:13:35;8.10;99.90
21216;DHT22;10765;50.954;5.322;2022-12-07T13:22:49;7.70;1.00
21216;DHT22;10765;50.954;5.322;2022-12-07T13:25:33;7.60;1.00
21216;DHT22;10765;50.954;5.322;2022-12-07T13:28:10;7.50;1.00
21216;DHT22;10765;50.954;5.322;2022-12-07T13:30:46;7.50;64.30
21216;DHT22;10765;50.954;5.322;2022-12-07T13:33:15;7.50;1.00
21216;DHT22;10765;50.954;5.322;2022-12-07T13:35:44;7.40;1.00
21216;DHT22;10765;50.954;5.322;2022-12-07T13:38:24;7.40;1.00
21216;DHT22;10765;50.954;5.322;2022-12-07T13:41:04;7.40;1.00
21216;DHT22;10765;50.954;5.322;2022-12-07T13:43:43;7.40;1.00
21216;DHT22;10765;50.954;5.322;2022-12-07T13:46:11;7.60;1.00
21216;DHT22;10765;50.954;5.322;2022-12-07T13:48:44;7.80;1.00
21216;DHT22;10765;50.954;5.322;2022-12-07T13:51:18;7.80;99.90
21216;DHT22;10765;50.954;5.322;2022-12-07T13:53:49;7.70;99.90
21216;DHT22;10765;50.954;5.322;2022-12-07T13:56:16;7.80;1.00
21216;DHT22;10765;50.954;5.322;2022-12-07T13:58:44;7.90;1.00
21216;DHT22;10765;50.954;5.322;2022-12-07T14:01:11;7.90;99.90
21216;DHT22;10765;50.954;5.322;2022-12-07T14:03:39;7.40;99.90
21216;DHT22;10765;50.954;5.322;2022-12-07T14:06:26;6.80;1.00
21216;DHT22;10765;50.954;5.322;2022-12-07T14:09:17;6.60;99.90
21216;DHT22;10765;50.954;5.322;2022-12-07T14:11:45;6.70;12.80
21216;DHT22;10765;50.954;5.322;2022-12-07T14:14:18;6.90;99.90
21216;DHT22;10765;50.954;5.322;2022-12-07T14:16:58;7.10;13.70
21216;DHT22;10765;50.954;5.322;2022-12-07T14:19:42;7.40;1.00
21216;DHT22;10765;50.954;5.322;2022-12-07T14:22:20;7.40;99.90
21216;DHT22;10765;50.954;5.322;2022-12-07T14:24:48;7.40;1.00
21216;DHT22;10765;50.954;5.322;2022-12-07T14:27:18;7.40;99.90
21216;DHT22;10765;50.954;5.322;2022-12-07T14:29:46;7.30;1.00
21216;DHT22;10765;50.954;5.322;2022-12-07T14:32:22;7.10;99.90
21216;DHT22;10765;50.954;5.322;2022-12-07T14:34:58;7.00;1.00
21216;DHT22;10765;50.954;5.322;2022-12-07T14:37:27;7.00;99.90
21216;DHT22;10765;50.954;5.322;2022-12-07T14:39:54;7.00;99.90
21216;DHT22;10765;50.954;5.322;2022-12-07T14:42:24;6.90;16.00
21216;DHT22;10765;50.954;5.322;2022-12-07T14:44:53;6.80;1.00
21216;DHT22;10765;50.954;5.322;2022-12-07T14:47:20;6.80;1.00
21216;DHT22;10765;50.954;5.322;2022-12-07T14:49:46;6.70;1.00
21216;DHT22;10765;50.954;5.322;2022-12-07T14:52:16;6.80;1.00
21216;DHT22;10765;50.954;5.322;2022-12-07T14:54:44;6.80;99.90
21216;DHT22;10765;50.954;5.322;2022-12-07T14:57:10;6.70;64.40
21216;DHT22;10765;50.954;5.322;2022-12-07T14:59:38;6.70;1.00
21216;DHT22;10765;50.954;5.322;2022-12-07T15:02:09;6.80;99.90
21216;DHT22;10765;50.954;5.322;2022-12-07T15:04:37;6.80;1.00
21216;DHT22;10765;50.954;5.322;2022-12-07T15:07:05;6.80;1.00
21216;DHT22;10765;50.954;5.322;2022-12-07T15:09:33;6.70;99.90
21216;DHT22;10765;50.954;5.322;2022-12-07T15:12:00;6.60;72.60
21216;DHT22;10765;50.954;5.322;2022-12-07T15:14:26;6.50;1.00
21216;DHT22;10765;50.954;5.322;2022-12-07T15:16:54;6.40;1.00
21216;DHT22;10765;50.954;5.322;2022-12-07T15:19:23;6.30;99.90
21216;DHT22;10765;50.954;5.322;2022-12-07T15:21:52;6.30;1.00
21216;DHT22;10765;50.954;5.322;2022-12-07T15:24:19;6.30;1.00
21216;DHT22;10765;50.954;5.322;2022-12-07T15:26:47;6.30;1.00
21216;DHT22;10765;50.954;5.322;2022-12-07T15:29:14;6.30;99.90
21216;DHT22;10765;50.954;5.322;2022-12-07T15:31:42;6.30;1.00
21216;DHT22;10765;50.954;5.322;2022-12-07T15:34:09;6.40;1.00
21216;DHT22;10765;50.954;5.322;2022-12-07T15:36:38;6.30;99.90
21216;DHT22;10765;50.954;5.322;2022-12-07T15:39:05;6.20;99.90
21216;DHT22;10765;50.954;5.322;2022-12-07T15:41:31;6.20;99.90
21216;DHT22;10765;50.954;5.322;2022-12-07T15:43:59;6.00;1.00
21216;DHT22;10765;50.954;5.322;2022-12-07T15:46:43;5.90;99.90
21216;DHT22;10765;50.954;5.322;2022-12-07T15:49:12;5.80;99.90
21216;DHT22;10765;50.954;5.322;2022-12-07T15:51:43;5.80;1.00
21216;DHT22;10765;50.954;5.322;2022-12-07T15:54:13;5.80;99.90
21216;DHT22;10765;50.954;5.322;2022-12-07T15:56:42;5.80;1.00
21216;DHT22;10765;50.954;5.322;2022-12-07T15:59:09;5.70;1.00
21216;DHT22;10765;50.954;5.322;2022-12-07T16:01:36;5.60;99.90
21216;DHT22;10765;50.954;5.322;2022-12-07T16:04:03;5.70;1.00
21216;DHT22;10765;50.954;5.322;2022-12-07T16:06:30;5.70;88.80
21216;DHT22;10765;50.954;5.322;2022-12-07T16:08:58;5.70;1.00
21216;DHT22;10765;50.954;5.322;2022-12-07T16:11:26;5.60;1.00
21216;DHT22;10765;50.954;5.322;2022-12-07T16:13:53;5.60;1.00
21216;DHT22;10765;50.954;5.322;2022-12-07T16:16:21;5.60;99.90
21216;DHT22;10765;50.954;5.322;2022-12-07T16:18:49;5.50;1.00
21216;DHT22;10765;50.954;5.322;2022-12-07T16:21:17;5.50;1.00
21216;DHT22;10765;50.954;5.322;2022-12-07T16:23:44;5.40;99.90
21216;DHT22;10765;50.954;5.322;2022-12-07T16:26:14;5.30;99.90
21216;DHT22;10765;50.954;5.322;2022-12-07T16:28:42;5.20;1.00
21216;DHT22;10765;50.954;5.322;2022-12-07T16:31:11;5.30;1.00